Time;durP1;ratioP1;P1;durP2;ratioP2;P2;SDS_P1;SDS_P2;PMS_P1;PMS_P2;Temp;Humidity;BMP_temperature;BMP_pressure;BME280_temperature;BME280_humidity;BME280_pressure;Samples;Min_cycle;Max_cycle;Signal;HPM_P1;HPM_P2
2021/08/20 00:02:26;;;;;;;4.07;3.15;;;21.10;77.60;;;;;;5020656;28;20704;-87
2021/08/20 00:04:52;;;;;;;4.03;3.10;;;21.10;77.30;;;;;;5021768;28;20301;-88
2021/08/20 00:07:18;;;;;;;3.28;2.58;;;21.00;78.10;;;;;;4998863;28;20220;-89
2021/08/20 00:09:43;;;;;;;3.10;2.90;;;21.00;77.60;;;;;;5013690;28;20185;-87
2021/08/20 00:12:10;;;;;;;4.03;3.03;;;21.00;77.50;;;;;;4986423;28;20210;-87
2021/08/20 00:14:36;;;;;;;4.07;2.70;;;20.90;77.30;;;;;;5020796;28;20332;-87
2021/08/20 00:17:02;;;;;;;2.88;2.67;;;20.90;77.30;;;;;;5020954;28;20209;-88
2021/08/20 00:19:28;;;;;;;3.40;2.70;;;20.90;77.80;;;;;;5019882;28;20197;-88
2021/08/20 00:21:54;;;;;;;3.67;2.75;;;20.90;77.60;;;;;;5020848;28;20250;-87
2021/08/20 00:24:20;;;;;;;3.05;2.80;;;20.90;77.20;;;;;;5020987;28;20212;-88
2021/08/20 00:26:45;;;;;;;4.85;2.90;;;20.80;77.00;;;;;;5020861;28;20200;-88
2021/08/20 00:29:12;;;;;;;2.90;2.60;;;20.80;76.90;;;;;;5021219;28;20188;-87
2021/08/20 00:31:38;;;;;;;3.10;2.80;;;20.80;76.70;;;;;;5036786;28;20229;-88
2021/08/20 00:34:04;;;;;;;4.28;3.00;;;20.70;77.40;;;;;;5021954;28;20530;-88
2021/08/20 00:36:29;;;;;;;4.25;3.03;;;20.70;77.60;;;;;;5019887;28;20186;-88
2021/08/20 00:38:55;;;;;;;3.78;2.80;;;20.70;77.70;;;;;;5019569;28;20196;-87
2021/08/20 00:41:21;;;;;;;3.15;2.95;;;20.70;76.70;;;;;;5019916;28;20231;-88
2021/08/20 00:43:47;;;;;;;3.72;3.10;;;20.70;76.50;;;;;;5021943;28;20215;-87
2021/08/20 00:46:13;;;;;;;2.97;2.78;;;20.70;77.00;;;;;;5018457;28;20194;-89
2021/08/20 00:48:39;;;;;;;3.75;3.13;;;20.50;77.80;;;;;;5018917;28;20789;-87
2021/08/20 00:51:23;;;;;;;4.65;2.75;;;20.50;77.90;;;;;;5019376;28;20584;-88
2021/08/20 00:53:50;;;;;;;4.13;2.95;;;20.60;77.60;;;;;;5019806;28;20189;-89
2021/08/20 00:56:16;;;;;;;3.05;2.80;;;20.60;78.10;;;;;;5033627;28;20746;-88
2021/08/20 00:58:43;;;;;;;3.83;3.00;;;20.50;77.30;;;;;;5019557;28;20606;-87
2021/08/20 01:01:09;;;;;;;3.38;2.83;;;20.50;77.60;;;;;;5018609;28;20244;-88
2021/08/20 01:03:36;;;;;;;3.15;2.90;;;20.50;77.40;;;;;;5021500;28;20188;-87
2021/08/20 01:06:03;;;;;;;3.75;2.85;;;20.50;77.40;;;;;;5027993;28;20216;-88
2021/08/20 01:08:30;;;;;;;3.20;2.90;;;20.50;77.60;;;;;;5021886;28;20192;-87
2021/08/20 01:10:58;;;;;;;3.95;2.85;;;20.60;77.30;;;;;;5022797;28;20195;-88
2021/08/20 01:13:25;;;;;;;3.83;2.75;;;20.60;77.10;;;;;;5023978;28;20213;-87
2021/08/20 01:15:54;;;;;;;5.00;3.00;;;20.50;77.50;;;;;;5021326;28;20190;-87
2021/08/20 01:18:25;;;;;;;3.55;2.90;;;20.50;77.20;;;;;;5023170;28;20220;-88
2021/08/20 01:20:54;;;;;;;4.20;3.25;;;20.50;77.80;;;;;;5022754;28;20194;-88
2021/08/20 01:23:24;;;;;;;3.45;2.60;;;20.50;78.10;;;;;;5023157;28;20463;-88
2021/08/20 01:25:50;;;;;;;3.70;2.90;;;20.40;78.30;;;;;;5023076;28;20266;-88
2021/08/20 01:28:16;;;;;;;2.95;2.65;;;20.40;78.30;;;;;;5021722;28;20208;-88
2021/08/20 01:30:42;;;;;;;4.25;3.20;;;20.50;77.20;;;;;;5017785;28;20237;-88
2021/08/20 01:33:08;;;;;;;3.30;3.00;;;20.50;77.40;;;;;;5019990;28;20565;-87
2021/08/20 01:35:34;;;;;;;2.78;2.55;;;20.50;78.70;;;;;;5022815;28;20191;-88
2021/08/20 01:38:00;;;;;;;4.05;3.28;;;20.50;78.00;;;;;;5019948;28;20263;-87
2021/08/20 01:40:26;;;;;;;5.30;3.05;;;20.50;77.90;;;;;;5021251;28;20199;-87
2021/08/20 01:42:52;;;;;;;6.25;3.03;;;20.50;77.60;;;;;;4980423;28;1167941;-88
2021/08/20 01:45:18;;;;;;;4.78;3.05;;;20.40;78.00;;;;;;5020282;28;20275;-87
2021/08/20 01:47:44;;;;;;;3.75;2.70;;;20.20;78.40;;;;;;5022237;28;20556;-87
2021/08/20 01:50:11;;;;;;;3.55;3.25;;;20.20;78.60;;;;;;5022075;28;20209;-87
2021/08/20 01:52:37;;;;;;;3.38;3.08;;;20.20;78.40;;;;;;5022853;28;20213;-88
2021/08/20 01:55:08;;;;;;;3.17;2.90;;;20.20;78.20;;;;;;5015601;28;20212;-87
2021/08/20 01:57:37;;;;;;;4.53;2.72;;;20.30;77.30;;;;;;5023647;28;20250;-87
2021/08/20 02:00:05;;;;;;;5.75;3.53;;;20.30;77.20;;;;;;5023828;28;20241;-87
2021/08/20 02:02:31;;;;;;;3.88;2.85;;;20.30;79.10;;;;;;5022104;28;20267;-88
2021/08/20 02:04:56;;;;;;;3.58;2.90;;;20.20;80.00;;;;;;5023127;28;20207;-87
2021/08/20 02:07:22;;;;;;;5.88;2.83;;;20.20;80.40;;;;;;5023975;28;20193;-87
2021/08/20 02:09:48;;;;;;;3.08;2.83;;;20.20;79.80;;;;;;5026194;28;20584;-87
2021/08/20 02:12:14;;;;;;;4.07;3.17;;;20.20;80.70;;;;;;5024339;28;20212;-87
2021/08/20 02:14:40;;;;;;;3.13;2.60;;;20.10;81.20;;;;;;5023647;28;20199;-87
2021/08/20 02:17:06;;;;;;;2.80;2.60;;;20.10;80.40;;;;;;5024006;28;20198;-87
2021/08/20 02:19:33;;;;;;;3.67;2.97;;;20.20;78.90;;;;;;5023263;28;20200;-87
2021/08/20 02:21:59;;;;;;;3.20;2.63;;;20.20;78.00;;;;;;5022173;28;20212;-87
2021/08/20 02:24:25;;;;;;;3.05;2.58;;;20.20;77.80;;;;;;5020150;28;20228;-87
2021/08/20 02:26:50;;;;;;;3.25;2.60;;;20.30;77.80;;;;;;5023919;28;20210;-87
2021/08/20 02:29:16;;;;;;;4.85;3.00;;;20.20;78.40;;;;;;5023471;28;20274;-87
2021/08/20 02:31:42;;;;;;;2.90;2.60;;;20.20;78.90;;;;;;5023642;28;20217;-88
2021/08/20 02:34:07;;;;;;;3.33;3.03;;;20.20;79.10;;;;;;5023718;28;20685;-88
2021/08/20 02:36:33;;;;;;;4.13;3.03;;;20.20;79.10;;;;;;5022998;28;20201;-87
2021/08/20 02:38:59;;;;;;;3.30;2.92;;;20.30;78.60;;;;;;5021329;28;20189;-88
2021/08/20 02:41:25;;;;;;;3.35;3.00;;;20.20;78.80;;;;;;5022297;28;20223;-88
2021/08/20 02:43:51;;;;;;;2.95;2.67;;;20.10;79.40;;;;;;5023432;28;20203;-87
2021/08/20 02:46:17;;;;;;;2.95;2.75;;;20.20;79.30;;;;;;5038653;28;20216;-87
2021/08/20 02:48:43;;;;;;;3.03;2.70;;;20.10;79.00;;;;;;5020749;28;20229;-87
2021/08/20 02:51:10;;;;;;;2.90;2.70;;;20.20;78.40;;;;;;5022530;28;20211;-88
2021/08/20 02:53:36;;;;;;;3.35;2.88;;;20.30;78.00;;;;;;5021785;28;20192;-88
2021/08/20 02:56:02;;;;;;;3.00;2.70;;;20.40;78.40;;;;;;5023326;28;20683;-89
2021/08/20 02:58:28;;;;;;;3.47;2.88;;;20.20;79.10;;;;;;5022722;28;20207;-87
2021/08/20 03:00:54;;;;;;;3.60;2.88;;;20.20;79.40;;;;;;5023869;28;20478;-87
2021/08/20 03:03:19;;;;;;;5.07;2.85;;;20.10;80.30;;;;;;5022407;28;20199;-88
2021/08/20 03:05:45;;;;;;;3.50;2.90;;;20.10;80.00;;;;;;5022013;28;20308;-87
2021/08/20 03:08:11;;;;;;;3.65;2.50;;;20.00;79.70;;;;;;5020592;28;20192;-87
2021/08/20 03:10:37;;;;;;;3.03;2.70;;;20.00;79.20;;;;;;5032936;28;20208;-88
2021/08/20 03:13:04;;;;;;;3.10;2.75;;;20.10;79.50;;;;;;5020432;28;20212;-87
2021/08/20 03:15:30;;;;;;;2.55;2.33;;;20.10;78.30;;;;;;5019790;28;20199;-88
2021/08/20 03:17:55;;;;;;;2.60;2.40;;;20.10;78.40;;;;;;5023223;28;20228;-87
2021/08/20 03:20:21;;;;;;;3.00;2.70;;;20.10;79.30;;;;;;5020358;28;20231;-87
2021/08/20 03:22:47;;;;;;;3.05;2.80;;;20.10;79.40;;;;;;5022886;28;20613;-88
2021/08/20 03:25:12;;;;;;;3.40;3.10;;;20.00;79.20;;;;;;5022802;28;20322;-88
2021/08/20 03:27:38;;;;;;;3.05;2.80;;;20.10;79.10;;;;;;5021374;28;20216;-87
2021/08/20 03:30:05;;;;;;;4.25;2.70;;;20.10;78.90;;;;;;5020609;28;20184;-88
2021/08/20 03:32:31;;;;;;;4.40;2.83;;;20.00;78.80;;;;;;5022568;28;20226;-88
2021/08/20 03:34:56;;;;;;;3.03;2.75;;;19.90;79.00;;;;;;5022630;28;20277;-87
2021/08/20 03:37:22;;;;;;;2.70;2.50;;;19.90;79.60;;;;;;5021827;28;20249;-87
2021/08/20 03:39:48;;;;;;;2.92;2.67;;;19.90;79.90;;;;;;5023248;28;20195;-87
2021/08/20 03:42:14;;;;;;;3.05;2.60;;;19.80;79.70;;;;;;5023505;28;20231;-87
2021/08/20 03:44:39;;;;;;;3.80;2.90;;;19.90;79.20;;;;;;5023030;28;20258;-88
2021/08/20 03:47:05;;;;;;;3.60;3.30;;;20.00;79.20;;;;;;5022533;28;20211;-87
2021/08/20 03:49:31;;;;;;;4.18;2.97;;;20.00;78.90;;;;;;5023305;28;20189;-88
2021/08/20 03:51:57;;;;;;;2.92;2.70;;;20.00;79.10;;;;;;5022509;28;20285;-87
2021/08/20 03:54:22;;;;;;;3.40;2.53;;;19.90;79.40;;;;;;5020136;28;20200;-88
2021/08/20 03:56:48;;;;;;;3.03;2.83;;;19.80;79.60;;;;;;5039010;28;20187;-88
2021/08/20 03:59:14;;;;;;;3.75;3.10;;;19.80;79.70;;;;;;5016160;28;20193;-88
2021/08/20 04:01:40;;;;;;;3.63;3.13;;;19.90;79.40;;;;;;5012694;28;20217;-88
2021/08/20 04:04:06;;;;;;;4.60;3.20;;;19.90;79.10;;;;;;5004042;28;20410;-87
2021/08/20 04:06:31;;;;;;;4.00;2.65;;;19.90;79.50;;;;;;5035066;28;20196;-87
2021/08/20 04:08:57;;;;;;;2.92;2.50;;;19.80;79.80;;;;;;5005764;28;20196;-88
2021/08/20 04:11:24;;;;;;;2.85;2.65;;;19.60;80.80;;;;;;5020038;28;20229;-88
2021/08/20 04:13:49;;;;;;;4.70;2.70;;;19.70;80.60;;;;;;5020596;28;20253;-87
2021/08/20 04:16:15;;;;;;;2.92;2.70;;;19.80;80.20;;;;;;5004594;28;20229;-88
2021/08/20 04:18:42;;;;;;;3.85;2.67;;;19.80;80.00;;;;;;5021697;28;20192;-88
2021/08/20 04:21:08;;;;;;;3.95;3.10;;;19.70;79.90;;;;;;5015530;28;20626;-87
2021/08/20 04:23:35;;;;;;;4.50;3.17;;;19.80;79.50;;;;;;5032168;28;20644;-87
2021/08/20 04:26:01;;;;;;;3.60;3.20;;;19.80;79.40;;;;;;5020099;28;20627;-87
2021/08/20 04:28:27;;;;;;;3.85;2.90;;;19.60;80.00;;;;;;5020383;28;20217;-87
2021/08/20 04:30:52;;;;;;;4.25;2.88;;;19.60;79.80;;;;;;5019730;28;20186;-87
2021/08/20 04:33:19;;;;;;;4.20;3.13;;;19.60;79.80;;;;;;5018535;28;20181;-87
2021/08/20 04:35:45;;;;;;;3.00;2.72;;;19.60;79.70;;;;;;5011672;28;20257;-89
2021/08/20 04:38:11;;;;;;;3.70;2.70;;;19.60;79.50;;;;;;5017608;28;20222;-88
2021/08/20 04:40:36;;;;;;;3.13;2.85;;;19.70;79.60;;;;;;5019209;28;20207;-89
2021/08/20 04:43:02;;;;;;;3.58;3.28;;;19.70;79.90;;;;;;5019416;28;20222;-88
2021/08/20 04:45:28;;;;;;;3.83;3.42;;;19.60;80.50;;;;;;5034639;28;20591;-87
2021/08/20 04:47:54;;;;;;;3.85;2.90;;;19.40;80.90;;;;;;5018332;28;20230;-88
2021/08/20 04:50:20;;;;;;;4.15;3.08;;;19.40;80.80;;;;;;5019787;28;20538;-88
2021/08/20 04:52:46;;;;;;;4.72;2.85;;;19.30;81.70;;;;;;5019350;28;20719;-87
2021/08/20 04:55:11;;;;;;;3.08;2.85;;;19.30;81.80;;;;;;5019527;28;20336;-87
2021/08/20 04:57:45;;;;;;;3.30;3.00;;;19.40;81.30;;;;;;5035207;28;20195;-88
2021/08/20 05:00:11;;;;;;;7.65;2.92;;;19.50;81.20;;;;;;5018273;28;20208;-88
2021/08/20 05:02:37;;;;;;;6.40;3.20;;;19.60;80.90;;;;;;5018969;28;20235;-86
2021/08/20 05:05:07;;;;;;;3.80;3.50;;;19.70;80.70;;;;;;5019165;28;20222;-85
2021/08/20 05:07:36;;;;;;;4.38;3.10;;;19.70;80.60;;;;;;5020216;28;20191;-86
2021/08/20 05:10:09;;;;;;;3.53;3.22;;;19.70;80.60;;;;;;5018945;28;20197;-85
2021/08/20 05:12:35;;;;;;;4.90;3.30;;;19.70;80.70;;;;;;5019305;28;20212;-86
2021/08/20 05:15:00;;;;;;;3.90;3.30;;;19.80;80.40;;;;;;5020425;28;20534;-86
2021/08/20 05:17:26;;;;;;;3.75;3.35;;;19.70;81.00;;;;;;5019870;28;20256;-86
2021/08/20 05:19:52;;;;;;;5.50;3.50;;;19.70;81.10;;;;;;5019858;28;20205;-85
2021/08/20 05:22:18;;;;;;;5.47;3.97;;;19.80;80.90;;;;;;5019489;28;20629;-85
2021/08/20 05:24:44;;;;;;;6.72;3.63;;;19.80;80.90;;;;;;5018186;28;20255;-85
2021/08/20 05:27:09;;;;;;;3.65;3.22;;;19.80;81.10;;;;;;5019686;28;20189;-86
2021/08/20 05:29:35;;;;;;;3.53;3.20;;;19.80;81.30;;;;;;5020497;28;20222;-86
2021/08/20 05:32:01;;;;;;;3.45;3.17;;;19.90;81.30;;;;;;5023658;28;20220;-86
2021/08/20 05:34:27;;;;;;;3.72;3.00;;;19.90;81.10;;;;;;5002363;28;20196;-85
2021/08/20 05:36:52;;;;;;;3.42;3.13;;;19.90;81.20;;;;;;5018873;28;20191;-85
2021/08/20 05:39:18;;;;;;;8.50;3.70;;;20.00;81.00;;;;;;5018095;28;20201;-86
2021/08/20 05:41:44;;;;;;;10.65;4.05;;;20.10;80.90;;;;;;5017178;28;20253;-86
2021/08/20 05:44:09;;;;;;;11.73;4.80;;;20.00;81.20;;;;;;5019739;28;20195;-85
2021/08/20 05:46:35;;;;;;;16.42;10.05;;;20.00;81.90;;;;;;5019862;28;20274;-85
2021/08/20 05:49:07;;;;;;;15.25;8.85;;;19.90;82.60;;;;;;5022151;28;20244;-86
2021/08/20 05:51:32;;;;;;;5.78;4.30;;;19.80;83.70;;;;;;5006378;28;20230;-86
2021/08/20 05:53:59;;;;;;;5.18;4.68;;;19.60;83.50;;;;;;5022666;28;20194;-86
2021/08/20 05:56:25;;;;;;;7.32;3.75;;;19.50;84.80;;;;;;5021340;28;20217;-88
2021/08/20 05:58:52;;;;;;;6.47;4.07;;;19.50;84.30;;;;;;5022537;28;20193;-86
2021/08/20 06:01:20;;;;;;;4.57;4.18;;;19.50;84.50;;;;;;5023607;28;20236;-87
2021/08/20 06:03:45;;;;;;;4.85;4.40;;;19.50;84.30;;;;;;5022672;28;20201;-88
2021/08/20 06:06:14;;;;;;;6.93;4.10;;;19.60;84.00;;;;;;5021335;28;20212;-87
2021/08/20 06:08:41;;;;;;;4.50;4.10;;;19.50;85.40;;;;;;5021701;28;20193;-86
2021/08/20 06:11:07;;;;;;;5.97;4.57;;;19.50;85.40;;;;;;5023381;28;20201;-87
2021/08/20 06:13:32;;;;;;;5.93;4.32;;;19.50;85.20;;;;;;5020000;28;20688;-87
2021/08/20 06:15:58;;;;;;;5.03;4.30;;;19.40;86.00;;;;;;5021758;28;20239;-87
2021/08/20 06:18:24;;;;;;;8.60;4.30;;;19.50;86.20;;;;;;5021772;28;20205;-86
2021/08/20 06:20:50;;;;;;;5.78;4.45;;;19.60;85.60;;;;;;5021354;28;20216;-85
2021/08/20 06:23:15;;;;;;;7.28;4.53;;;19.60;85.60;;;;;;5020278;28;20665;-86
2021/08/20 06:25:41;;;;;;;5.43;4.47;;;19.60;85.40;;;;;;5020953;28;20248;-85
2021/08/20 06:28:07;;;;;;;5.10;4.60;;;19.60;85.60;;;;;;5018575;28;20743;-86
2021/08/20 06:30:33;;;;;;;5.57;4.47;;;19.60;85.70;;;;;;5020250;28;20189;-86
2021/08/20 06:32:58;;;;;;;5.60;4.63;;;19.60;86.20;;;;;;5016394;28;20286;-87
2021/08/20 06:35:24;;;;;;;5.07;4.65;;;19.50;86.90;;;;;;5021579;28;20694;-87
2021/08/20 06:37:50;;;;;;;5.70;5.18;;;19.60;86.50;;;;;;5019410;28;20217;-85
2021/08/20 06:40:15;;;;;;;8.35;4.93;;;19.50;87.10;;;;;;5022205;28;20197;-86
2021/08/20 06:42:41;;;;;;;5.40;4.90;;;19.60;86.90;;;;;;5021432;28;20282;-86
2021/08/20 06:45:07;;;;;;;8.80;5.22;;;19.60;87.10;;;;;;5023032;28;20276;-85
2021/08/20 06:47:33;;;;;;;5.80;5.13;;;19.70;86.90;;;;;;5023287;28;20198;-86
2021/08/20 06:49:59;;;;;;;5.60;5.18;;;19.70;87.00;;;;;;5021432;28;20225;-86
2021/08/20 06:52:25;;;;;;;6.35;5.75;;;19.80;86.20;;;;;;5011521;28;20213;-86
2021/08/20 06:54:56;;;;;;;6.93;5.60;;;19.80;87.00;;;;;;5036614;28;20224;-86
2021/08/20 06:57:22;;;;;;;7.95;5.75;;;19.80;86.20;;;;;;5020694;28;20200;-86
2021/08/20 06:59:48;;;;;;;6.57;5.70;;;19.90;85.50;;;;;;5023467;28;20215;-86
2021/08/20 07:02:14;;;;;;;7.32;5.95;;;20.00;84.60;;;;;;4983887;28;20215;-86
2021/08/20 07:04:39;;;;;;;6.35;5.80;;;20.00;84.60;;;;;;5005451;28;20207;-87
2021/08/20 07:07:05;;;;;;;7.38;6.05;;;20.20;83.80;;;;;;5022820;28;20197;-86
2021/08/20 07:09:31;;;;;;;6.43;5.82;;;20.30;83.70;;;;;;5022467;28;20201;-86
2021/08/20 07:11:57;;;;;;;7.10;5.90;;;20.20;84.10;;;;;;5020732;28;20205;-86
2021/08/20 07:14:23;;;;;;;7.57;6.15;;;20.40;83.60;;;;;;5021218;28;20325;-87
2021/08/20 07:16:49;;;;;;;9.48;6.88;;;20.40;82.90;;;;;;5021328;28;20215;-86
2021/08/20 07:19:14;;;;;;;7.18;6.18;;;20.30;83.40;;;;;;5017863;28;20193;-86
2021/08/20 07:21:40;;;;;;;7.80;6.40;;;20.30;83.90;;;;;;5021737;28;20258;-86
2021/08/20 07:24:06;;;;;;;9.95;6.75;;;20.50;83.20;;;;;;5038169;28;20607;-86
2021/08/20 07:26:32;;;;;;;8.32;6.72;;;20.50;83.50;;;;;;5019055;28;20212;-88
2021/08/20 07:28:57;;;;;;;7.15;6.55;;;20.50;82.90;;;;;;5020463;28;20183;-88
2021/08/20 07:31:25;;;;;;;8.60;6.13;;;20.70;82.00;;;;;;5019253;28;20221;-86
2021/08/20 07:33:51;;;;;;;8.02;6.30;;;20.70;82.10;;;;;;5019951;28;20190;-87
2021/08/20 07:36:17;;;;;;;7.03;6.43;;;20.50;82.30;;;;;;5018490;28;20202;-86
2021/08/20 07:38:43;;;;;;;7.30;6.65;;;20.50;82.70;;;;;;5020855;28;20218;-86
2021/08/20 07:41:08;;;;;;;8.38;7.13;;;20.70;81.90;;;;;;5016863;28;20583;-86
2021/08/20 07:43:34;;;;;;;7.97;7.25;;;20.70;80.90;;;;;;5018196;28;20199;-87
2021/08/20 07:46:00;;;;;;;9.43;7.32;;;20.70;80.20;;;;;;5035032;28;20585;-87
2021/08/20 07:48:25;;;;;;;7.28;6.68;;;20.70;81.40;;;;;;5020158;28;20209;-86
2021/08/20 07:50:51;;;;;;;8.52;7.72;;;20.80;81.10;;;;;;5020087;28;20194;-86
2021/08/20 07:53:17;;;;;;;8.57;7.00;;;20.70;81.70;;;;;;5020445;28;20280;-86
2021/08/20 07:55:44;;;;;;;8.55;7.20;;;20.60;80.70;;;;;;5020922;28;20212;-87
2021/08/20 07:58:10;;;;;;;8.68;7.25;;;20.70;81.40;;;;;;5020457;28;20201;-86
2021/08/20 08:00:36;;;;;;;7.13;6.13;;;20.90;81.60;;;;;;5018413;28;20191;-86
2021/08/20 08:03:02;;;;;;;6.75;5.93;;;21.00;79.50;;;;;;5017045;28;20216;-86
2021/08/20 08:05:28;;;;;;;7.40;6.70;;;21.20;75.10;;;;;;5019105;28;20236;-86
2021/08/20 08:07:56;;;;;;;6.85;6.15;;;21.10;77.40;;;;;;5003140;28;20201;-87
2021/08/20 08:10:22;;;;;;;7.47;5.90;;;21.30;76.40;;;;;;5021343;28;20205;-87
2021/08/20 08:12:49;;;;;;;5.45;4.95;;;21.50;75.20;;;;;;5017592;28;20215;-86
2021/08/20 08:15:15;;;;;;;10.65;6.13;;;21.50;71.90;;;;;;5036645;28;20188;-87
2021/08/20 08:17:41;;;;;;;6.55;5.85;;;21.60;73.60;;;;;;5019413;28;20226;-87
2021/08/20 08:20:12;;;;;;;6.18;5.57;;;21.50;72.60;;;;;;5018099;28;20192;-86
2021/08/20 08:22:38;;;;;;;6.20;5.63;;;21.70;72.30;;;;;;5035258;28;20737;-86
2021/08/20 08:25:05;;;;;;;5.70;5.20;;;21.60;71.50;;;;;;5017908;28;20232;-86
2021/08/20 08:27:31;;;;;;;6.53;5.95;;;21.80;69.50;;;;;;5001711;28;20205;-86
2021/08/20 08:29:57;;;;;;;5.57;5.10;;;22.00;70.00;;;;;;5019685;28;20590;-87
2021/08/20 08:32:23;;;;;;;5.65;5.15;;;22.20;65.70;;;;;;5024759;28;20703;-86
2021/08/20 08:34:48;;;;;;;7.25;6.00;;;22.40;65.60;;;;;;5019855;28;20276;-86
2021/08/20 08:37:14;;;;;;;6.10;5.60;;;22.50;65.30;;;;;;5019703;28;20693;-86
2021/08/20 08:39:40;;;;;;;6.95;6.35;;;22.60;66.60;;;;;;5021515;28;20194;-87
2021/08/20 08:42:06;;;;;;;6.50;5.97;;;22.60;68.40;;;;;;5021822;28;20767;-87
2021/08/20 08:44:35;;;;;;;6.05;5.43;;;22.70;67.70;;;;;;5020714;28;20193;-87
2021/08/20 08:47:03;;;;;;;6.22;5.70;;;22.80;66.00;;;;;;5036210;28;20252;-87
2021/08/20 08:49:30;;;;;;;5.88;5.47;;;22.90;63.90;;;;;;5019901;28;20211;-87
2021/08/20 08:51:55;;;;;;;6.10;5.47;;;23.10;65.00;;;;;;5020235;28;20358;-87
2021/08/20 08:54:21;;;;;;;6.05;5.40;;;23.20;65.30;;;;;;5021618;28;20719;-86
2021/08/20 08:56:48;;;;;;;6.10;5.60;;;23.20;63.90;;;;;;5021363;28;20204;-86
2021/08/20 08:59:14;;;;;;;7.68;5.53;;;22.90;65.90;;;;;;5020263;28;20213;-87
2021/08/20 09:01:40;;;;;;;6.32;5.72;;;23.10;64.80;;;;;;5019080;28;20213;-89
2021/08/20 09:04:18;;;;;;;6.65;6.05;;;23.30;63.70;;;;;;5020833;28;20549;-87
2021/08/20 09:06:55;;;;;;;6.55;5.88;;;23.40;63.70;;;;;;5015841;28;20221;-87
2021/08/20 09:09:23;;;;;;;6.93;6.20;;;23.70;62.60;;;;;;5020630;28;20181;-86
2021/08/20 09:11:54;;;;;;;6.22;5.60;;;23.60;63.60;;;;;;5019629;28;20201;-86
2021/08/20 09:14:29;;;;;;;6.38;5.88;;;23.30;63.90;;;;;;5018630;28;20208;-87
2021/08/20 09:16:55;;;;;;;12.40;6.85;;;23.10;65.40;;;;;;5020627;28;20648;-87
2021/08/20 09:19:23;;;;;;;7.45;6.30;;;23.30;65.30;;;;;;5013344;28;20193;-88
2021/08/20 09:21:55;;;;;;;6.55;5.95;;;23.50;62.60;;;;;;5016702;28;20625;-87
2021/08/20 09:24:39;;;;;;;6.13;5.53;;;23.70;61.90;;;;;;5015677;28;20669;-87
2021/08/20 09:27:14;;;;;;;7.47;6.38;;;24.00;61.20;;;;;;5021517;28;20189;-87
2021/08/20 09:30:07;;;;;;;6.70;6.13;;;24.10;60.20;;;;;;5021728;28;20223;-87
2021/08/20 09:32:51;;;;;;;9.10;5.47;;;24.30;59.20;;;;;;5020673;28;20225;-87
2021/08/20 09:35:17;;;;;;;5.38;4.97;;;24.50;59.40;;;;;;5020048;28;20282;-84
2021/08/20 09:37:43;;;;;;;7.18;5.20;;;24.50;58.10;;;;;;5020784;28;20186;-87
2021/08/20 09:40:13;;;;;;;6.15;5.65;;;24.30;59.90;;;;;;5035408;28;20661;-87
2021/08/20 09:42:39;;;;;;;9.40;6.03;;;24.30;59.70;;;;;;5018755;28;20255;-87
2021/08/20 09:45:24;;;;;;;6.70;5.93;;;24.60;58.90;;;;;;5021294;28;20616;-86
2021/08/20 09:47:54;;;;;;;7.60;6.10;;;24.80;57.30;;;;;;5003735;28;20208;-87
2021/08/20 09:50:22;;;;;;;5.55;4.95;;;24.60;60.40;;;;;;5019577;28;20296;-87
2021/08/20 09:52:48;;;;;;;5.07;4.68;;;24.50;58.50;;;;;;5020430;28;20214;-87
2021/08/20 09:55:40;;;;;;;6.47;5.25;;;24.90;56.50;;;;;;5020746;28;20201;-86
2021/08/20 09:58:09;;;;;;;5.20;4.78;;;25.10;55.70;;;;;;5019397;28;20209;-87
2021/08/20 10:00:35;;;;;;;5.95;5.45;;;25.40;55.90;;;;;;5019799;28;20245;-87
2021/08/20 10:03:13;;;;;;;9.13;5.90;;;25.60;54.80;;;;;;5021837;28;20232;-87
2021/08/20 10:05:39;;;;;;;14.52;6.30;;;25.70;54.00;;;;;;5020573;28;20688;-87
2021/08/20 10:08:09;;;;;;;5.47;4.95;;;25.90;52.60;;;;;;5019663;28;20182;-87
2021/08/20 10:10:36;;;;;;;7.00;5.30;;;26.10;51.80;;;;;;5021146;28;20181;-87
2021/08/20 10:13:03;;;;;;;4.80;4.50;;;26.20;51.10;;;;;;5019536;28;20340;-87
2021/08/20 10:15:30;;;;;;;5.13;4.70;;;26.20;50.70;;;;;;5019117;28;20403;-88
2021/08/20 10:17:56;;;;;;;5.13;4.72;;;26.30;50.10;;;;;;5020389;28;20186;-87
2021/08/20 10:20:22;;;;;;;5.68;5.00;;;26.40;50.80;;;;;;5019228;28;20208;-87
2021/08/20 10:22:49;;;;;;;5.50;5.10;;;26.40;49.30;;;;;;5018467;28;20221;-87
2021/08/20 10:25:15;;;;;;;5.88;5.38;;;26.50;50.60;;;;;;5019256;28;20209;-87
2021/08/20 10:27:41;;;;;;;5.00;4.70;;;26.40;51.10;;;;;;5019637;28;20276;-87
2021/08/20 10:30:09;;;;;;;5.70;5.20;;;26.60;51.50;;;;;;5021582;28;20200;-87
2021/08/20 10:32:35;;;;;;;6.63;5.18;;;26.50;52.20;;;;;;5022645;28;20189;-87
2021/08/20 10:35:00;;;;;;;6.03;5.40;;;26.60;52.20;;;;;;5022367;28;20205;-88
2021/08/20 10:37:30;;;;;;;5.45;4.95;;;26.60;48.40;;;;;;5020233;28;20202;-87
2021/08/20 10:39:59;;;;;;;4.95;4.45;;;26.60;50.20;;;;;;5019537;28;20185;-87
2021/08/20 10:42:43;;;;;;;5.15;4.75;;;26.80;49.80;;;;;;5020318;28;20226;-87
2021/08/20 10:45:12;;;;;;;6.80;5.38;;;27.20;49.10;;;;;;5023159;28;20234;-86
2021/08/20 10:47:40;;;;;;;5.47;4.97;;;27.40;49.20;;;;;;5024936;28;20257;-88
2021/08/20 10:50:16;;;;;;;5.43;5.03;;;27.40;49.60;;;;;;5026675;28;20189;-87
2021/08/20 10:52:47;;;;;;;5.32;4.82;;;27.60;48.60;;;;;;5039289;28;20201;-86
2021/08/20 10:55:20;;;;;;;5.80;4.72;;;27.70;48.00;;;;;;5024493;28;20213;-86
2021/08/20 10:57:55;;;;;;;6.10;4.90;;;27.40;48.90;;;;;;5023749;28;20212;-87
2021/08/20 11:00:21;;;;;;;4.95;4.57;;;27.40;49.00;;;;;;5022609;28;20181;-86
2021/08/20 11:02:51;;;;;;;5.75;4.63;;;27.30;48.40;;;;;;5023257;28;20864;-87
2021/08/20 11:05:19;;;;;;;5.25;4.85;;;27.20;48.20;;;;;;5021586;28;20217;-87
2021/08/20 11:07:49;;;;;;;4.88;4.47;;;27.50;49.10;;;;;;5019676;28;20206;-87
2021/08/20 11:10:15;;;;;;;5.60;4.97;;;27.70;47.60;;;;;;5035744;28;20221;-86
2021/08/20 11:12:50;;;;;;;5.00;4.60;;;27.70;46.70;;;;;;5019441;28;20213;-86
2021/08/20 11:15:22;;;;;;;4.53;4.22;;;28.00;46.40;;;;;;5018312;28;20189;-86
2021/08/20 11:18:03;;;;;;;5.35;4.50;;;27.80;45.20;;;;;;5016028;28;20196;-87
2021/08/20 11:20:36;;;;;;;6.35;4.60;;;27.80;43.20;;;;;;5022425;28;20549;-86
2021/08/20 11:23:05;;;;;;;4.50;4.15;;;27.70;42.80;;;;;;5014827;28;20212;-87
2021/08/20 11:25:40;;;;;;;4.88;4.47;;;27.50;43.50;;;;;;5012564;28;20217;-87
2021/08/20 11:28:20;;;;;;;5.82;4.55;;;27.80;43.50;;;;;;5014558;28;20201;-87
2021/08/20 11:31:00;;;;;;;5.85;4.43;;;28.00;41.70;;;;;;5016876;28;20201;-86
2021/08/20 11:33:42;;;;;;;6.55;4.85;;;28.00;43.20;;;;;;5017684;28;20181;-87
2021/08/20 11:36:16;;;;;;;4.53;4.20;;;27.90;41.30;;;;;;5020341;28;20190;-87
2021/08/20 11:38:45;;;;;;;4.85;4.45;;;28.00;42.90;;;;;;5020198;28;20649;-86
2021/08/20 11:41:27;;;;;;;4.80;4.40;;;28.00;44.30;;;;;;5023770;28;20351;-86
2021/08/20 11:43:57;;;;;;;4.85;4.25;;;28.50;41.60;;;;;;5024462;28;20189;-87
2021/08/20 11:46:34;;;;;;;5.50;4.43;;;28.80;42.30;;;;;;5025131;28;20229;-86
2021/08/20 11:49:00;;;;;;;4.63;4.22;;;29.10;38.70;;;;;;5025896;28;20181;-86
2021/08/20 11:51:36;;;;;;;4.47;4.18;;;29.20;38.30;;;;;;5025174;28;20221;-86
2021/08/20 11:54:05;;;;;;;4.85;4.40;;;29.40;37.80;;;;;;5036746;28;20221;-86
2021/08/20 11:56:31;;;;;;;4.50;4.20;;;29.60;38.50;;;;;;5020848;28;20205;-86
2021/08/20 11:59:06;;;;;;;5.20;4.70;;;29.80;38.10;;;;;;5025519;28;20197;-86
2021/08/20 12:01:34;;;;;;;8.48;5.10;;;29.90;38.90;;;;;;5023339;28;20213;-86
2021/08/20 12:04:01;;;;;;;5.10;4.70;;;29.50;41.60;;;;;;5021730;28;20201;-86
2021/08/20 12:06:28;;;;;;;4.45;4.05;;;29.40;39.70;;;;;;5038459;28;20245;-85
2021/08/20 12:08:57;;;;;;;4.13;3.70;;;29.60;39.20;;;;;;5023180;28;20182;-86
2021/08/20 12:11:25;;;;;;;3.90;3.60;;;29.60;35.20;;;;;;5035541;28;20305;-86
2021/08/20 12:13:53;;;;;;;4.05;3.80;;;29.80;35.10;;;;;;5022515;28;20240;-86
2021/08/20 12:16:39;;;;;;;4.30;4.00;;;30.10;34.90;;;;;;5037045;28;20609;-86
2021/08/20 12:19:11;;;;;;;4.05;3.75;;;30.50;34.60;;;;;;5018175;28;20189;-86
2021/08/20 12:21:36;;;;;;;4.60;4.30;;;30.70;34.50;;;;;;5034363;28;20228;-86
2021/08/20 12:24:05;;;;;;;4.43;4.13;;;30.70;35.00;;;;;;5019007;28;20556;-86
2021/08/20 12:26:32;;;;;;;4.65;4.22;;;30.70;35.40;;;;;;5018478;28;20216;-86
2021/08/20 12:28:57;;;;;;;4.40;4.10;;;30.30;37.40;;;;;;5022235;28;20185;-86
2021/08/20 12:31:24;;;;;;;4.75;4.28;;;30.20;35.50;;;;;;5018229;28;20208;-86
2021/08/20 12:34:05;;;;;;;4.50;4.00;;;29.90;35.60;;;;;;5015932;28;20189;-87
2021/08/20 12:36:31;;;;;;;4.35;3.95;;;29.90;36.50;;;;;;5017195;28;20275;-86
2021/08/20 12:39:10;;;;;;;4.72;4.32;;;30.60;36.30;;;;;;5018136;28;20224;-87
2021/08/20 12:41:39;;;;;;;4.25;3.95;;;31.10;35.70;;;;;;5016458;28;20285;-86
2021/08/20 12:44:31;;;;;;;4.18;3.88;;;31.00;35.10;;;;;;5017392;28;20200;-87
2021/08/20 12:47:07;;;;;;;4.55;4.25;;;31.10;34.30;;;;;;5018504;28;20668;-87
2021/08/20 12:49:32;;;;;;;4.15;3.85;;;31.20;33.80;;;;;;5017535;28;20620;-86